Weather at Bømoen Airport

Public forecast

Using degrees Celsius for public forecast. Weather courtesy of forecast.io.

Closest aviation weather report (METAR) to Bømoen Airport

Report is more than 2 hours old.

Closest report is Sogndal Airport, Haukåsen, 36.2 nm (67.0 km) NNE. Retrieved 2021/10/21 20:20 UTC (6 hours ago):

ENSG 212020Z 24015KT 6000 -SHSN SCT015 BKN030 00/M02 Q0985 RMK WIND 3806FT 28037KT

Closest aviation forecast (TAF) to Bømoen Airport

Closest forecast is Bergen Airport, Flesland, 43.3 nm (80.1 km) WSW. Retrieved 2021-10-22 00:57 UTC (1 hour ago):

TAF ENBR 212300Z 2200/2224 33015KT 9999 -SHRA FEW015TCU BKN030 TEMPO 2200/2218 33018G28KT 4000 SHRAGS BKN012 SCT018CB PROB40 TEMPO 2209/2216 33028G40KT